sensor_id;sensor_type;location;lat;lon;timestamp;P1;durP1;ratioP1;P2;durP2;ratioP2
76667;SDS011;65585;51.166;16.922;2023-09-08T00:10:00;13.30;;;10.35;;
76667;SDS011;65585;51.166;16.922;2023-09-08T00:12:26;12.77;;;9.90;;
76667;SDS011;65585;51.166;16.922;2023-09-08T00:14:52;14.98;;;10.80;;
76667;SDS011;65585;51.166;16.922;2023-09-08T00:17:18;16.13;;;11.80;;
76667;SDS011;65585;51.166;16.922;2023-09-08T00:19:44;12.25;;;10.48;;
76667;SDS011;65585;51.166;16.922;2023-09-08T00:22:10;13.18;;;10.10;;
76667;SDS011;65585;51.166;16.922;2023-09-08T00:24:36;13.10;;;10.13;;
76667;SDS011;65585;51.166;16.922;2023-09-08T00:27:02;13.00;;;10.20;;
76667;SDS011;65585;51.166;16.922;2023-09-08T00:29:28;15.18;;;10.90;;
76667;SDS011;65585;51.166;16.922;2023-09-08T00:31:54;16.08;;;10.77;;
76667;SDS011;65585;51.166;16.922;2023-09-08T00:34:20;12.85;;;10.52;;
76667;SDS011;65585;51.166;16.922;2023-09-08T00:36:48;14.23;;;10.13;;
76667;SDS011;65585;51.166;16.922;2023-09-08T00:39:15;13.07;;;10.85;;
76667;SDS011;65585;51.166;16.922;2023-09-08T00:41:40;15.15;;;10.98;;
76667;SDS011;65585;51.166;16.922;2023-09-08T00:44:06;15.98;;;11.13;;
76667;SDS011;65585;51.166;16.922;2023-09-08T00:46:34;13.95;;;10.60;;
76667;SDS011;65585;51.166;16.922;2023-09-08T00:49:00;13.35;;;11.05;;
76667;SDS011;65585;51.166;16.922;2023-09-08T00:51:27;15.55;;;11.88;;
76667;SDS011;65585;51.166;16.922;2023-09-08T00:53:53;16.50;;;12.32;;
76667;SDS011;65585;51.166;16.922;2023-09-08T00:56:19;17.70;;;12.93;;
76667;SDS011;65585;51.166;16.922;2023-09-08T00:58:45;14.85;;;10.95;;
76667;SDS011;65585;51.166;16.922;2023-09-08T01:01:11;15.02;;;11.45;;
76667;SDS011;65585;51.166;16.922;2023-09-08T01:03:38;14.50;;;11.20;;
76667;SDS011;65585;51.166;16.922;2023-09-08T01:06:04;14.82;;;11.60;;
76667;SDS011;65585;51.166;16.922;2023-09-08T01:08:31;18.10;;;12.15;;
76667;SDS011;65585;51.166;16.922;2023-09-08T01:10:56;16.38;;;11.77;;
76667;SDS011;65585;51.166;16.922;2023-09-08T01:13:23;16.15;;;12.48;;
76667;SDS011;65585;51.166;16.922;2023-09-08T01:15:49;15.20;;;11.10;;
76667;SDS011;65585;51.166;16.922;2023-09-08T01:18:15;16.42;;;12.18;;
76667;SDS011;65585;51.166;16.922;2023-09-08T01:20:46;15.15;;;11.85;;
76667;SDS011;65585;51.166;16.922;2023-09-08T01:26:14;15.15;;;11.55;;
76667;SDS011;65585;51.166;16.922;2023-09-08T01:28:43;16.42;;;12.13;;
76667;SDS011;65585;51.166;16.922;2023-09-08T01:31:10;14.55;;;10.50;;
76667;SDS011;65585;51.166;16.922;2023-09-08T01:33:37;16.45;;;12.18;;
76667;SDS011;65585;51.166;16.922;2023-09-08T01:36:03;16.35;;;12.57;;
76667;SDS011;65585;51.166;16.922;2023-09-08T01:38:30;15.52;;;11.82;;
76667;SDS011;65585;51.166;16.922;2023-09-08T01:40:55;17.23;;;11.90;;
76667;SDS011;65585;51.166;16.922;2023-09-08T01:43:21;14.32;;;10.93;;
76667;SDS011;65585;51.166;16.922;2023-09-08T01:45:47;15.98;;;12.02;;
76667;SDS011;65585;51.166;16.922;2023-09-08T01:48:13;14.18;;;10.60;;
76667;SDS011;65585;51.166;16.922;2023-09-08T01:50:39;19.48;;;11.88;;
76667;SDS011;65585;51.166;16.922;2023-09-08T01:53:05;13.32;;;11.52;;
76667;SDS011;65585;51.166;16.922;2023-09-08T01:55:31;15.48;;;11.93;;
76667;SDS011;65585;51.166;16.922;2023-09-08T01:57:57;16.33;;;11.85;;
76667;SDS011;65585;51.166;16.922;2023-09-08T02:00:23;14.82;;;11.73;;
76667;SDS011;65585;51.166;16.922;2023-09-08T02:02:49;14.95;;;10.70;;
76667;SDS011;65585;51.166;16.922;2023-09-08T02:05:15;14.55;;;11.02;;
76667;SDS011;65585;51.166;16.922;2023-09-08T02:07:41;19.98;;;12.23;;
76667;SDS011;65585;51.166;16.922;2023-09-08T02:10:07;14.98;;;11.95;;
76667;SDS011;65585;51.166;16.922;2023-09-08T02:12:34;12.63;;;11.30;;
76667;SDS011;65585;51.166;16.922;2023-09-08T02:15:00;14.45;;;11.18;;
76667;SDS011;65585;51.166;16.922;2023-09-08T02:17:26;11.18;;;9.77;;
76667;SDS011;65585;51.166;16.922;2023-09-08T02:19:52;13.57;;;11.02;;
76667;SDS011;65585;51.166;16.922;2023-09-08T02:22:19;13.77;;;11.02;;
76667;SDS011;65585;51.166;16.922;2023-09-08T02:24:44;14.13;;;10.80;;
76667;SDS011;65585;51.166;16.922;2023-09-08T02:27:13;12.23;;;10.30;;
76667;SDS011;65585;51.166;16.922;2023-09-08T02:29:39;15.43;;;11.68;;
76667;SDS011;65585;51.166;16.922;2023-09-08T02:32:05;14.30;;;11.35;;
76667;SDS011;65585;51.166;16.922;2023-09-08T02:34:33;16.95;;;12.13;;
76667;SDS011;65585;51.166;16.922;2023-09-08T02:37:02;17.42;;;12.50;;
76667;SDS011;65585;51.166;16.922;2023-09-08T02:39:28;16.25;;;11.55;;
76667;SDS011;65585;51.166;16.922;2023-09-08T02:41:54;14.27;;;11.95;;
76667;SDS011;65585;51.166;16.922;2023-09-08T02:44:20;16.48;;;11.23;;
76667;SDS011;65585;51.166;16.922;2023-09-08T02:46:47;17.83;;;12.30;;
76667;SDS011;65585;51.166;16.922;2023-09-08T02:49:13;15.40;;;12.48;;
76667;SDS011;65585;51.166;16.922;2023-09-08T02:51:39;16.45;;;12.50;;
76667;SDS011;65585;51.166;16.922;2023-09-08T02:54:05;18.95;;;13.05;;
76667;SDS011;65585;51.166;16.922;2023-09-08T02:56:31;15.65;;;12.55;;
76667;SDS011;65585;51.166;16.922;2023-09-08T02:58:57;16.15;;;13.07;;
76667;SDS011;65585;51.166;16.922;2023-09-08T03:01:23;16.88;;;13.07;;
76667;SDS011;65585;51.166;16.922;2023-09-08T03:03:49;17.08;;;12.55;;
76667;SDS011;65585;51.166;16.922;2023-09-08T03:06:17;14.75;;;12.23;;
76667;SDS011;65585;51.166;16.922;2023-09-08T03:08:44;16.65;;;12.85;;
76667;SDS011;65585;51.166;16.922;2023-09-08T03:11:10;15.55;;;11.90;;
76667;SDS011;65585;51.166;16.922;2023-09-08T03:13:36;14.82;;;11.90;;
76667;SDS011;65585;51.166;16.922;2023-09-08T03:16:05;15.82;;;11.48;;
76667;SDS011;65585;51.166;16.922;2023-09-08T03:18:35;18.63;;;12.60;;
76667;SDS011;65585;51.166;16.922;2023-09-08T03:21:04;16.55;;;13.48;;
76667;SDS011;65585;51.166;16.922;2023-09-08T03:23:37;16.92;;;12.48;;
76667;SDS011;65585;51.166;16.922;2023-09-08T03:26:04;13.93;;;11.10;;
76667;SDS011;65585;51.166;16.922;2023-09-08T03:28:33;14.75;;;11.95;;
76667;SDS011;65585;51.166;16.922;2023-09-08T03:31:01;15.02;;;11.50;;
76667;SDS011;65585;51.166;16.922;2023-09-08T03:33:27;12.60;;;10.57;;
76667;SDS011;65585;51.166;16.922;2023-09-08T03:35:53;14.35;;;10.70;;
76667;SDS011;65585;51.166;16.922;2023-09-08T03:38:20;14.95;;;11.90;;
76667;SDS011;65585;51.166;16.922;2023-09-08T03:40:47;16.02;;;12.20;;
76667;SDS011;65585;51.166;16.922;2023-09-08T03:43:13;16.83;;;11.80;;
76667;SDS011;65585;51.166;16.922;2023-09-08T03:45:39;17.02;;;12.35;;
76667;SDS011;65585;51.166;16.922;2023-09-08T03:48:05;15.98;;;12.32;;
76667;SDS011;65585;51.166;16.922;2023-09-08T03:50:31;19.08;;;14.15;;
76667;SDS011;65585;51.166;16.922;2023-09-08T03:52:57;23.33;;;17.13;;
76667;SDS011;65585;51.166;16.922;2023-09-08T03:55:23;26.27;;;18.30;;
76667;SDS011;65585;51.166;16.922;2023-09-08T03:57:49;24.88;;;16.48;;
76667;SDS011;65585;51.166;16.922;2023-09-08T04:00:15;27.15;;;16.45;;
76667;SDS011;65585;51.166;16.922;2023-09-08T04:02:47;21.33;;;15.57;;
76667;SDS011;65585;51.166;16.922;2023-09-08T04:05:15;23.60;;;16.80;;
76667;SDS011;65585;51.166;16.922;2023-09-08T04:07:41;20.65;;;14.68;;
76667;SDS011;65585;51.166;16.922;2023-09-08T04:10:08;21.65;;;15.63;;
76667;SDS011;65585;51.166;16.922;2023-09-08T04:12:34;19.40;;;14.25;;
76667;SDS011;65585;51.166;16.922;2023-09-08T04:15:00;21.42;;;15.18;;
76667;SDS011;65585;51.166;16.922;2023-09-08T04:17:26;20.83;;;16.52;;
76667;SDS011;65585;51.166;16.922;2023-09-08T04:19:52;21.80;;;15.63;;
76667;SDS011;65585;51.166;16.922;2023-09-08T04:22:18;19.52;;;15.00;;
76667;SDS011;65585;51.166;16.922;2023-09-08T04:24:44;24.08;;;15.35;;
76667;SDS011;65585;51.166;16.922;2023-09-08T04:27:10;22.92;;;15.90;;
76667;SDS011;65585;51.166;16.922;2023-09-08T04:29:36;23.88;;;17.42;;
76667;SDS011;65585;51.166;16.922;2023-09-08T04:32:02;26.17;;;20.17;;
76667;SDS011;65585;51.166;16.922;2023-09-08T04:34:38;21.38;;;15.63;;
76667;SDS011;65585;51.166;16.922;2023-09-08T04:37:05;24.60;;;17.75;;
76667;SDS011;65585;51.166;16.922;2023-09-08T04:39:31;27.83;;;19.55;;
76667;SDS011;65585;51.166;16.922;2023-09-08T04:41:57;24.60;;;19.48;;
76667;SDS011;65585;51.166;16.922;2023-09-08T04:44:24;23.70;;;18.02;;
76667;SDS011;65585;51.166;16.922;2023-09-08T04:46:50;26.83;;;17.65;;
76667;SDS011;65585;51.166;16.922;2023-09-08T04:49:17;26.73;;;16.45;;
76667;SDS011;65585;51.166;16.922;2023-09-08T04:51:43;31.35;;;19.83;;
76667;SDS011;65585;51.166;16.922;2023-09-08T04:54:10;26.77;;;17.90;;
76667;SDS011;65585;51.166;16.922;2023-09-08T04:56:35;26.80;;;19.33;;
76667;SDS011;65585;51.166;16.922;2023-09-08T04:59:01;26.02;;;17.60;;
76667;SDS011;65585;51.166;16.922;2023-09-08T05:01:28;23.60;;;18.35;;
76667;SDS011;65585;51.166;16.922;2023-09-08T05:03:55;28.40;;;17.60;;
76667;SDS011;65585;51.166;16.922;2023-09-08T05:06:21;25.13;;;17.98;;
76667;SDS011;65585;51.166;16.922;2023-09-08T05:08:47;22.65;;;17.95;;
76667;SDS011;65585;51.166;16.922;2023-09-08T05:11:13;26.52;;;19.30;;
76667;SDS011;65585;51.166;16.922;2023-09-08T05:13:39;29.92;;;21.23;;
76667;SDS011;65585;51.166;16.922;2023-09-08T05:16:05;31.08;;;21.85;;
76667;SDS011;65585;51.166;16.922;2023-09-08T05:18:40;31.08;;;23.00;;
76667;SDS011;65585;51.166;16.922;2023-09-08T05:21:07;32.30;;;22.00;;
76667;SDS011;65585;51.166;16.922;2023-09-08T05:23:33;40.20;;;25.50;;
76667;SDS011;65585;51.166;16.922;2023-09-08T05:25:59;34.72;;;25.38;;
76667;SDS011;65585;51.166;16.922;2023-09-08T05:28:26;35.72;;;25.45;;
76667;SDS011;65585;51.166;16.922;2023-09-08T05:30:52;38.83;;;25.88;;
76667;SDS011;65585;51.166;16.922;2023-09-08T05:33:18;37.95;;;26.73;;
76667;SDS011;65585;51.166;16.922;2023-09-08T05:35:44;38.53;;;25.67;;
76667;SDS011;65585;51.166;16.922;2023-09-08T05:38:11;35.83;;;24.58;;
76667;SDS011;65585;51.166;16.922;2023-09-08T05:40:37;35.65;;;25.77;;
76667;SDS011;65585;51.166;16.922;2023-09-08T05:43:03;35.50;;;24.90;;
76667;SDS011;65585;51.166;16.922;2023-09-08T05:45:31;36.80;;;25.25;;
76667;SDS011;65585;51.166;16.922;2023-09-08T05:47:57;33.50;;;24.58;;
76667;SDS011;65585;51.166;16.922;2023-09-08T05:50:23;37.53;;;25.77;;
76667;SDS011;65585;51.166;16.922;2023-09-08T05:52:50;33.20;;;24.52;;
76667;SDS011;65585;51.166;16.922;2023-09-08T05:55:16;37.42;;;25.20;;
76667;SDS011;65585;51.166;16.922;2023-09-08T05:57:43;39.75;;;27.10;;
76667;SDS011;65585;51.166;16.922;2023-09-08T06:00:09;35.30;;;24.85;;
76667;SDS011;65585;51.166;16.922;2023-09-08T06:02:36;38.88;;;27.08;;
76667;SDS011;65585;51.166;16.922;2023-09-08T06:05:02;36.47;;;27.33;;
76667;SDS011;65585;51.166;16.922;2023-09-08T06:07:28;38.15;;;28.35;;
76667;SDS011;65585;51.166;16.922;2023-09-08T06:09:55;42.33;;;26.52;;
76667;SDS011;65585;51.166;16.922;2023-09-08T06:12:21;36.15;;;25.55;;
76667;SDS011;65585;51.166;16.922;2023-09-08T06:14:47;35.13;;;26.08;;
76667;SDS011;65585;51.166;16.922;2023-09-08T06:17:13;38.42;;;28.15;;
76667;SDS011;65585;51.166;16.922;2023-09-08T06:19:39;38.38;;;26.88;;
76667;SDS011;65585;51.166;16.922;2023-09-08T06:22:05;40.63;;;25.58;;
76667;SDS011;65585;51.166;16.922;2023-09-08T06:24:31;37.55;;;25.90;;
76667;SDS011;65585;51.166;16.922;2023-09-08T06:26:57;36.28;;;26.10;;
76667;SDS011;65585;51.166;16.922;2023-09-08T06:29:23;34.95;;;26.25;;
76667;SDS011;65585;51.166;16.922;2023-09-08T06:31:49;31.23;;;24.05;;
76667;SDS011;65585;51.166;16.922;2023-09-08T06:34:14;31.35;;;22.88;;
76667;SDS011;65585;51.166;16.922;2023-09-08T06:36:41;32.13;;;24.92;;
76667;SDS011;65585;51.166;16.922;2023-09-08T06:39:07;31.50;;;22.75;;
76667;SDS011;65585;51.166;16.922;2023-09-08T06:41:33;32.17;;;23.33;;
76667;SDS011;65585;51.166;16.922;2023-09-08T06:43:59;29.73;;;22.40;;
76667;SDS011;65585;51.166;16.922;2023-09-08T06:46:25;26.83;;;21.10;;
76667;SDS011;65585;51.166;16.922;2023-09-08T06:48:51;28.85;;;21.98;;
76667;SDS011;65585;51.166;16.922;2023-09-08T06:51:17;30.75;;;22.13;;
76667;SDS011;65585;51.166;16.922;2023-09-08T06:53:43;25.05;;;19.30;;
76667;SDS011;65585;51.166;16.922;2023-09-08T06:56:10;26.27;;;20.45;;
76667;SDS011;65585;51.166;16.922;2023-09-08T06:58:35;25.88;;;19.48;;
76667;SDS011;65585;51.166;16.922;2023-09-08T07:01:01;27.52;;;19.30;;
76667;SDS011;65585;51.166;16.922;2023-09-08T07:03:27;29.20;;;19.52;;
76667;SDS011;65585;51.166;16.922;2023-09-08T07:05:54;23.90;;;19.48;;
76667;SDS011;65585;51.166;16.922;2023-09-08T07:08:19;24.73;;;19.08;;
76667;SDS011;65585;51.166;16.922;2023-09-08T07:10:51;25.52;;;18.38;;
76667;SDS011;65585;51.166;16.922;2023-09-08T07:13:17;29.10;;;20.60;;
76667;SDS011;65585;51.166;16.922;2023-09-08T07:15:43;25.05;;;19.65;;
76667;SDS011;65585;51.166;16.922;2023-09-08T07:18:10;25.38;;;19.17;;
76667;SDS011;65585;51.166;16.922;2023-09-08T07:20:36;25.52;;;19.73;;
76667;SDS011;65585;51.166;16.922;2023-09-08T07:23:01;25.55;;;17.65;;
76667;SDS011;65585;51.166;16.922;2023-09-08T07:25:28;25.50;;;19.17;;
76667;SDS011;65585;51.166;16.922;2023-09-08T07:27:53;26.80;;;19.38;;
76667;SDS011;65585;51.166;16.922;2023-09-08T07:30:20;25.75;;;18.92;;
76667;SDS011;65585;51.166;16.922;2023-09-08T07:32:46;24.40;;;18.02;;
76667;SDS011;65585;51.166;16.922;2023-09-08T07:35:12;21.38;;;17.30;;
76667;SDS011;65585;51.166;16.922;2023-09-08T07:37:40;22.13;;;17.75;;
76667;SDS011;65585;51.166;16.922;2023-09-08T07:40:08;21.35;;;17.40;;
76667;SDS011;65585;51.166;16.922;2023-09-08T07:42:35;21.05;;;15.40;;
76667;SDS011;65585;51.166;16.922;2023-09-08T07:45:01;20.35;;;15.38;;
76667;SDS011;65585;51.166;16.922;2023-09-08T07:47:27;21.80;;;15.23;;
76667;SDS011;65585;51.166;16.922;2023-09-08T07:50:15;18.35;;;14.50;;
76667;SDS011;65585;51.166;16.922;2023-09-08T07:52:45;18.77;;;14.45;;
76667;SDS011;65585;51.166;16.922;2023-09-08T07:55:12;18.00;;;13.65;;
76667;SDS011;65585;51.166;16.922;2023-09-08T07:57:38;15.15;;;13.02;;
76667;SDS011;65585;51.166;16.922;2023-09-08T08:00:04;18.67;;;15.45;;
76667;SDS011;65585;51.166;16.922;2023-09-08T08:02:31;18.80;;;15.43;;
76667;SDS011;65585;51.166;16.922;2023-09-08T08:04:57;18.33;;;13.80;;
76667;SDS011;65585;51.166;16.922;2023-09-08T08:07:23;21.33;;;14.38;;
76667;SDS011;65585;51.166;16.922;2023-09-08T08:09:51;17.05;;;14.48;;
76667;SDS011;65585;51.166;16.922;2023-09-08T08:12:19;18.40;;;14.45;;
76667;SDS011;65585;51.166;16.922;2023-09-08T08:14:45;22.08;;;14.98;;
76667;SDS011;65585;51.166;16.922;2023-09-08T08:17:11;17.00;;;14.77;;
76667;SDS011;65585;51.166;16.922;2023-09-08T08:19:37;16.77;;;12.70;;
76667;SDS011;65585;51.166;16.922;2023-09-08T08:22:02;15.57;;;13.07;;
76667;SDS011;65585;51.166;16.922;2023-09-08T08:24:29;14.25;;;12.73;;
76667;SDS011;65585;51.166;16.922;2023-09-08T08:26:54;14.77;;;13.07;;
76667;SDS011;65585;51.166;16.922;2023-09-08T08:29:20;16.98;;;12.32;;
76667;SDS011;65585;51.166;16.922;2023-09-08T08:31:46;15.57;;;11.73;;
76667;SDS011;65585;51.166;16.922;2023-09-08T08:34:12;16.70;;;12.45;;
76667;SDS011;65585;51.166;16.922;2023-09-08T08:36:38;16.48;;;11.52;;
76667;SDS011;65585;51.166;16.922;2023-09-08T08:39:05;15.80;;;12.35;;
76667;SDS011;65585;51.166;16.922;2023-09-08T08:41:31;13.57;;;11.07;;
76667;SDS011;65585;51.166;16.922;2023-09-08T08:43:57;13.35;;;11.32;;
76667;SDS011;65585;51.166;16.922;2023-09-08T08:46:23;16.30;;;11.77;;
76667;SDS011;65585;51.166;16.922;2023-09-08T08:48:50;14.10;;;12.02;;
76667;SDS011;65585;51.166;16.922;2023-09-08T08:51:19;16.05;;;12.98;;
76667;SDS011;65585;51.166;16.922;2023-09-08T08:53:49;14.82;;;11.80;;
76667;SDS011;65585;51.166;16.922;2023-09-08T08:56:14;14.48;;;11.82;;
76667;SDS011;65585;51.166;16.922;2023-09-08T08:58:42;14.00;;;10.98;;
76667;SDS011;65585;51.166;16.922;2023-09-08T09:01:09;13.68;;;11.30;;
76667;SDS011;65585;51.166;16.922;2023-09-08T09:03:36;13.85;;;10.85;;
76667;SDS011;65585;51.166;16.922;2023-09-08T09:06:03;16.15;;;10.38;;
76667;SDS011;65585;51.166;16.922;2023-09-08T09:08:30;12.65;;;10.23;;
76667;SDS011;65585;51.166;16.922;2023-09-08T09:10:56;15.18;;;10.00;;
76667;SDS011;65585;51.166;16.922;2023-09-08T09:13:22;14.82;;;11.82;;
76667;SDS011;65585;51.166;16.922;2023-09-08T09:15:48;17.02;;;11.35;;
76667;SDS011;65585;51.166;16.922;2023-09-08T09:20:41;13.50;;;10.95;;
76667;SDS011;65585;51.166;16.922;2023-09-08T09:23:32;15.10;;;10.40;;
76667;SDS011;65585;51.166;16.922;2023-09-08T09:25:59;15.35;;;10.80;;
76667;SDS011;65585;51.166;16.922;2023-09-08T09:28:28;15.43;;;8.93;;
76667;SDS011;65585;51.166;16.922;2023-09-08T09:30:54;13.98;;;11.70;;
76667;SDS011;65585;51.166;16.922;2023-09-08T09:33:20;15.65;;;9.98;;
76667;SDS011;65585;51.166;16.922;2023-09-08T09:35:47;12.98;;;10.95;;
76667;SDS011;65585;51.166;16.922;2023-09-08T09:38:18;12.73;;;10.25;;
76667;SDS011;65585;51.166;16.922;2023-09-08T09:40:45;12.52;;;10.13;;
76667;SDS011;65585;51.166;16.922;2023-09-08T09:45:38;12.73;;;10.10;;
76667;SDS011;65585;51.166;16.922;2023-09-08T09:48:05;11.82;;;10.43;;
76667;SDS011;65585;51.166;16.922;2023-09-08T09:53:23;12.85;;;9.77;;
76667;SDS011;65585;51.166;16.922;2023-09-08T09:55:48;14.05;;;10.35;;
76667;SDS011;65585;51.166;16.922;2023-09-08T09:58:14;12.70;;;10.55;;
76667;SDS011;65585;51.166;16.922;2023-09-08T10:00:41;12.82;;;10.70;;
76667;SDS011;65585;51.166;16.922;2023-09-08T10:03:07;10.05;;;8.93;;
76667;SDS011;65585;51.166;16.922;2023-09-08T10:05:33;12.65;;;9.63;;
76667;SDS011;65585;51.166;16.922;2023-09-08T10:08:00;12.75;;;10.18;;
76667;SDS011;65585;51.166;16.922;2023-09-08T10:10:26;10.20;;;8.77;;
76667;SDS011;65585;51.166;16.922;2023-09-08T10:12:54;10.98;;;8.80;;
76667;SDS011;65585;51.166;16.922;2023-09-08T10:15:22;11.43;;;9.63;;
76667;SDS011;65585;51.166;16.922;2023-09-08T10:17:52;17.13;;;9.38;;
76667;SDS011;65585;51.166;16.922;2023-09-08T10:20:19;11.98;;;9.27;;
76667;SDS011;65585;51.166;16.922;2023-09-08T10:25:48;11.43;;;9.23;;
76667;SDS011;65585;51.166;16.922;2023-09-08T10:28:21;10.23;;;8.23;;
76667;SDS011;65585;51.166;16.922;2023-09-08T10:30:47;10.52;;;8.63;;
76667;SDS011;65585;51.166;16.922;2023-09-08T10:33:14;10.43;;;9.32;;
76667;SDS011;65585;51.166;16.922;2023-09-08T10:35:40;11.20;;;9.10;;
76667;SDS011;65585;51.166;16.922;2023-09-08T10:38:27;10.73;;;8.95;;
76667;SDS011;65585;51.166;16.922;2023-09-08T10:41:25;9.95;;;7.82;;
76667;SDS011;65585;51.166;16.922;2023-09-08T10:43:43;9.82;;;8.50;;
76667;SDS011;65585;51.166;16.922;2023-09-08T10:46:22;12.43;;;10.02;;
76667;SDS011;65585;51.166;16.922;2023-09-08T10:48:49;10.90;;;7.80;;
76667;SDS011;65585;51.166;16.922;2023-09-08T10:51:15;11.90;;;7.90;;
76667;SDS011;65585;51.166;16.922;2023-09-08T10:53:42;10.30;;;8.15;;
76667;SDS011;65585;51.166;16.922;2023-09-08T10:56:12;11.15;;;7.70;;
76667;SDS011;65585;51.166;16.922;2023-09-08T10:58:38;13.75;;;8.65;;
76667;SDS011;65585;51.166;16.922;2023-09-08T11:01:06;10.60;;;8.30;;
76667;SDS011;65585;51.166;16.922;2023-09-08T11:06:02;14.57;;;8.70;;
76667;SDS011;65585;51.166;16.922;2023-09-08T11:08:29;11.38;;;8.77;;
76667;SDS011;65585;51.166;16.922;2023-09-08T11:10:56;9.05;;;8.15;;
76667;SDS011;65585;51.166;16.922;2023-09-08T11:15:50;10.32;;;8.27;;
76667;SDS011;65585;51.166;16.922;2023-09-08T11:18:24;9.73;;;7.88;;
76667;SDS011;65585;51.166;16.922;2023-09-08T11:20:51;11.68;;;8.35;;
76667;SDS011;65585;51.166;16.922;2023-09-08T11:23:18;8.63;;;7.45;;
76667;SDS011;65585;51.166;16.922;2023-09-08T11:25:44;13.98;;;7.97;;
76667;SDS011;65585;51.166;16.922;2023-09-08T11:28:10;9.43;;;8.43;;
76667;SDS011;65585;51.166;16.922;2023-09-08T11:30:37;9.52;;;8.40;;
76667;SDS011;65585;51.166;16.922;2023-09-08T11:33:03;9.77;;;8.07;;
76667;SDS011;65585;51.166;16.922;2023-09-08T11:35:31;9.75;;;7.90;;
76667;SDS011;65585;51.166;16.922;2023-09-08T11:37:58;8.25;;;7.35;;
76667;SDS011;65585;51.166;16.922;2023-09-08T11:40:26;11.75;;;7.47;;
76667;SDS011;65585;51.166;16.922;2023-09-08T11:42:53;7.95;;;6.85;;
76667;SDS011;65585;51.166;16.922;2023-09-08T11:45:18;9.07;;;7.03;;
76667;SDS011;65585;51.166;16.922;2023-09-08T11:47:48;11.25;;;7.22;;
76667;SDS011;65585;51.166;16.922;2023-09-08T11:50:15;9.43;;;7.35;;
76667;SDS011;65585;51.166;16.922;2023-09-08T11:52:46;10.50;;;7.80;;
76667;SDS011;65585;51.166;16.922;2023-09-08T11:55:13;8.90;;;8.00;;
76667;SDS011;65585;51.166;16.922;2023-09-08T11:57:40;10.13;;;7.43;;
76667;SDS011;65585;51.166;16.922;2023-09-08T12:00:07;8.48;;;7.28;;
76667;SDS011;65585;51.166;16.922;2023-09-08T12:02:36;8.95;;;7.13;;
76667;SDS011;65585;51.166;16.922;2023-09-08T12:05:03;9.57;;;7.22;;
76667;SDS011;65585;51.166;16.922;2023-09-08T12:07:29;8.38;;;7.50;;
76667;SDS011;65585;51.166;16.922;2023-09-08T12:09:55;8.10;;;7.30;;
76667;SDS011;65585;51.166;16.922;2023-09-08T12:12:21;7.80;;;6.97;;
76667;SDS011;65585;51.166;16.922;2023-09-08T12:14:47;8.23;;;7.20;;
76667;SDS011;65585;51.166;16.922;2023-09-08T12:17:13;13.07;;;8.30;;
76667;SDS011;65585;51.166;16.922;2023-09-08T12:19:42;9.32;;;7.70;;
76667;SDS011;65585;51.166;16.922;2023-09-08T12:22:08;8.75;;;6.70;;
76667;SDS011;65585;51.166;16.922;2023-09-08T12:24:47;10.32;;;7.57;;
76667;SDS011;65585;51.166;16.922;2023-09-08T12:27:22;9.38;;;7.15;;
76667;SDS011;65585;51.166;16.922;2023-09-08T12:30:06;8.20;;;7.22;;
76667;SDS011;65585;51.166;16.922;2023-09-08T12:32:34;9.10;;;7.63;;
76667;SDS011;65585;51.166;16.922;2023-09-08T12:35:03;8.40;;;7.15;;
76667;SDS011;65585;51.166;16.922;2023-09-08T12:37:32;8.82;;;7.70;;
76667;SDS011;65585;51.166;16.922;2023-09-08T12:39:58;7.97;;;6.68;;
76667;SDS011;65585;51.166;16.922;2023-09-08T12:42:26;9.55;;;7.32;;
76667;SDS011;65585;51.166;16.922;2023-09-08T12:44:54;9.52;;;7.05;;
76667;SDS011;65585;51.166;16.922;2023-09-08T12:47:21;10.35;;;7.40;;
76667;SDS011;65585;51.166;16.922;2023-09-08T12:49:48;9.93;;;7.07;;
76667;SDS011;65585;51.166;16.922;2023-09-08T12:52:15;8.77;;;6.68;;
76667;SDS011;65585;51.166;16.922;2023-09-08T12:54:40;8.13;;;6.32;;
76667;SDS011;65585;51.166;16.922;2023-09-08T12:57:07;7.05;;;6.35;;
76667;SDS011;65585;51.166;16.922;2023-09-08T12:59:32;11.82;;;7.35;;
76667;SDS011;65585;51.166;16.922;2023-09-08T13:01:58;7.50;;;6.75;;
76667;SDS011;65585;51.166;16.922;2023-09-08T13:04:24;8.00;;;6.78;;
76667;SDS011;65585;51.166;16.922;2023-09-08T13:06:50;7.88;;;6.65;;
76667;SDS011;65585;51.166;16.922;2023-09-08T13:09:16;6.93;;;6.20;;
76667;SDS011;65585;51.166;16.922;2023-09-08T13:11:42;7.28;;;6.55;;
76667;SDS011;65585;51.166;16.922;2023-09-08T13:14:08;7.75;;;6.30;;
76667;SDS011;65585;51.166;16.922;2023-09-08T13:16:34;8.50;;;6.85;;
76667;SDS011;65585;51.166;16.922;2023-09-08T13:19:00;7.28;;;6.15;;
76667;SDS011;65585;51.166;16.922;2023-09-08T13:21:26;9.57;;;7.00;;
76667;SDS011;65585;51.166;16.922;2023-09-08T13:23:52;7.40;;;6.38;;
76667;SDS011;65585;51.166;16.922;2023-09-08T13:26:18;8.65;;;7.28;;
76667;SDS011;65585;51.166;16.922;2023-09-08T13:28:44;7.82;;;6.63;;
76667;SDS011;65585;51.166;16.922;2023-09-08T13:31:10;8.27;;;6.20;;
76667;SDS011;65585;51.166;16.922;2023-09-08T13:33:36;8.80;;;7.20;;
76667;SDS011;65585;51.166;16.922;2023-09-08T13:36:02;10.95;;;6.85;;
76667;SDS011;65585;51.166;16.922;2023-09-08T13:38:28;7.38;;;6.75;;
76667;SDS011;65585;51.166;16.922;2023-09-08T13:40:54;7.18;;;6.47;;
76667;SDS011;65585;51.166;16.922;2023-09-08T13:43:20;7.32;;;6.53;;
76667;SDS011;65585;51.166;16.922;2023-09-08T13:45:46;9.65;;;6.78;;
76667;SDS011;65585;51.166;16.922;2023-09-08T13:48:12;8.23;;;7.15;;
76667;SDS011;65585;51.166;16.922;2023-09-08T13:50:38;9.05;;;6.72;;
76667;SDS011;65585;51.166;16.922;2023-09-08T13:53:07;6.75;;;6.05;;
76667;SDS011;65585;51.166;16.922;2023-09-08T13:55:33;6.68;;;5.97;;
76667;SDS011;65585;51.166;16.922;2023-09-08T13:57:58;8.65;;;6.35;;
76667;SDS011;65585;51.166;16.922;2023-09-08T14:00:24;9.15;;;6.35;;
76667;SDS011;65585;51.166;16.922;2023-09-08T14:02:50;6.75;;;5.90;;
76667;SDS011;65585;51.166;16.922;2023-09-08T14:05:16;9.88;;;6.45;;
76667;SDS011;65585;51.166;16.922;2023-09-08T14:07:42;8.55;;;5.88;;
76667;SDS011;65585;51.166;16.922;2023-09-08T14:12:34;7.43;;;5.88;;
76667;SDS011;65585;51.166;16.922;2023-09-08T14:15:01;7.82;;;5.97;;
76667;SDS011;65585;51.166;16.922;2023-09-08T14:17:27;6.72;;;5.88;;
76667;SDS011;65585;51.166;16.922;2023-09-08T14:19:53;8.35;;;5.93;;
76667;SDS011;65585;51.166;16.922;2023-09-08T14:22:19;7.22;;;6.30;;
76667;SDS011;65585;51.166;16.922;2023-09-08T14:24:45;8.00;;;6.13;;
76667;SDS011;65585;51.166;16.922;2023-09-08T14:27:11;8.35;;;6.22;;
76667;SDS011;65585;51.166;16.922;2023-09-08T14:29:37;9.27;;;5.93;;
76667;SDS011;65585;51.166;16.922;2023-09-08T14:32:02;7.10;;;5.72;;
76667;SDS011;65585;51.166;16.922;2023-09-08T14:34:29;8.45;;;6.03;;
76667;SDS011;65585;51.166;16.922;2023-09-08T14:36:54;7.40;;;5.97;;
76667;SDS011;65585;51.166;16.922;2023-09-08T14:39:20;7.25;;;5.93;;
76667;SDS011;65585;51.166;16.922;2023-09-08T14:41:47;6.88;;;6.18;;
76667;SDS011;65585;51.166;16.922;2023-09-08T14:44:15;7.10;;;6.05;;